createdAt,value
2018-10-06T00:00:33.926Z,785.70
2018-10-06T00:02:36.267Z,793.27
2018-10-06T00:04:38.578Z,774.38
2018-10-06T00:06:40.925Z,764.27
2018-10-06T00:08:43.262Z,784.27
2018-10-06T00:10:45.610Z,758.62
2018-10-06T00:12:47.975Z,747.77
2018-10-06T00:14:50.269Z,734.52
2018-10-06T00:16:52.606Z,755.98
2018-10-06T00:18:55.173Z,781.63
2018-10-06T00:20:57.478Z,782.95
2018-10-06T00:22:59.798Z,760.05
2018-10-06T00:25:02.073Z,773.37
2018-10-06T00:27:04.368Z,758.35
2018-10-06T00:29:06.659Z,762.55
2018-10-06T00:31:09.009Z,756.17
2018-10-06T00:33:11.333Z,759.27
2018-10-06T00:35:13.648Z,753.60
2018-10-06T00:37:15.960Z,744.52
2018-10-06T00:39:18.295Z,734.10
2018-10-06T00:41:20.587Z,754.85
2018-10-06T00:43:22.925Z,767.33
2018-10-06T00:45:25.187Z,759.90
2018-10-06T00:47:27.490Z,747.98
2018-10-06T00:49:29.795Z,762.90
2018-10-06T00:51:32.104Z,747.40
2018-10-06T00:53:34.421Z,743.13
2018-10-06T00:55:36.980Z,754.98
2018-10-06T00:57:39.312Z,734.42
2018-10-06T00:59:41.706Z,739.30
2018-10-06T01:01:43.962Z,727.62
2018-10-06T01:03:46.304Z,730.08
2018-10-06T01:05:48.580Z,729.62
2018-10-06T01:07:51.152Z,734.65
2018-10-06T01:09:53.444Z,720.60
2018-10-06T01:11:55.728Z,720.00
2018-10-06T01:13:58.095Z,722.37
2018-10-06T01:16:00.398Z,707.45
2018-10-06T01:18:02.648Z,702.10
2018-10-06T01:20:04.926Z,711.90
2018-10-06T01:22:07.254Z,714.40
2018-10-06T01:24:09.523Z,713.60
2018-10-06T01:26:11.862Z,709.55
2018-10-06T01:28:14.404Z,713.98
2018-10-06T01:30:16.666Z,708.92
2018-10-06T01:32:18.980Z,701.87
2018-10-06T01:34:21.240Z,716.85
2018-10-06T01:36:23.574Z,704.70
2018-10-06T01:38:25.902Z,690.88
2018-10-06T01:40:28.167Z,704.35
2018-10-06T01:42:30.446Z,694.35
2018-10-06T01:44:33.269Z,672.87
2018-10-06T01:46:35.516Z,692.33
2018-10-06T01:48:37.838Z,691.40
2018-10-06T01:50:40.188Z,669.80
2018-10-06T01:52:42.824Z,691.90
2018-10-06T01:54:45.134Z,669.17
2018-10-06T01:56:47.465Z,685.73
2018-10-06T01:58:49.748Z,673.25
2018-10-06T02:00:52.029Z,674.67
2018-10-06T02:02:54.391Z,674.95
2018-10-06T02:04:56.690Z,654.50
2018-10-06T02:06:58.997Z,657.40
2018-10-06T02:09:01.327Z,675.12
2018-10-06T02:11:03.686Z,651.67
2018-10-06T02:13:06.299Z,641.58
2018-10-06T02:15:08.617Z,635.05
2018-10-06T02:17:10.909Z,637.20
2018-10-06T02:19:13.187Z,630.70
2018-10-06T02:21:15.531Z,617.60
2018-10-06T02:23:18.032Z,627.70
2018-10-06T02:25:20.283Z,614.23
2018-10-06T02:27:22.564Z,615.80
2018-10-06T02:29:25.195Z,617.75
2018-10-06T02:31:27.539Z,606.73
2018-10-06T02:33:29.890Z,621.00
2018-10-06T02:35:32.223Z,604.48
2018-10-06T02:37:34.513Z,594.30
2018-10-06T02:39:36.851Z,592.33
2018-10-06T02:41:39.207Z,581.33
2018-10-06T02:43:41.546Z,582.70
2018-10-06T02:45:43.824Z,554.95
2018-10-06T02:47:46.366Z,558.95
2018-10-06T02:49:48.852Z,552.65
2018-10-06T02:51:51.151Z,561.17
2018-10-06T02:53:53.745Z,563.45
2018-10-06T02:55:56.018Z,535.35
2018-10-06T02:57:58.312Z,524.50
2018-10-06T03:00:01.025Z,514.42
2018-10-06T03:02:03.297Z,512.52
2018-10-06T03:04:05.591Z,520.62
2018-10-06T03:06:07.866Z,528.77
2018-10-06T03:08:10.182Z,507.40
2018-10-06T03:10:12.463Z,506.50
2018-10-06T03:12:14.786Z,511.10
2018-10-06T03:14:17.085Z,476.90
2018-10-06T03:16:19.359Z,497.95
2018-10-06T03:18:21.693Z,506.20
2018-10-06T03:20:24.001Z,479.42
2018-10-06T03:22:26.256Z,491.45
2018-10-06T03:24:28.521Z,505.57
2018-10-06T03:26:30.808Z,483.80
2018-10-06T03:28:33.092Z,484.57
2018-10-06T03:30:35.379Z,481.45
2018-10-06T03:32:37.683Z,439.82
2018-10-06T03:34:39.999Z,466.35
2018-10-06T03:36:42.256Z,484.10
2018-10-06T03:38:44.920Z,476.07
2018-10-06T03:40:47.175Z,487.62
2018-10-06T03:42:49.512Z,483.85
2018-10-06T03:44:51.770Z,479.02
2018-10-06T03:46:54.081Z,465.85
2018-10-06T03:48:56.664Z,474.77
2018-10-06T03:50:58.985Z,461.70
2018-10-06T03:53:01.237Z,454.07
2018-10-06T03:55:03.529Z,442.50
2018-10-06T03:57:05.858Z,415.80
2018-10-06T03:59:08.193Z,449.25
2018-10-06T04:01:10.717Z,427.60
2018-10-06T04:03:13.003Z,447.33
2018-10-06T04:05:15.287Z,430.30
2018-10-06T04:07:17.600Z,437.08
2018-10-06T04:09:19.913Z,452.52
2018-10-06T04:11:22.183Z,438.00
2018-10-06T04:13:24.498Z,421.57
2018-10-06T04:15:26.842Z,420.00
2018-10-06T04:17:29.132Z,429.53
2018-10-06T04:19:31.510Z,401.02
2018-10-06T04:21:33.805Z,416.42
2018-10-06T04:23:36.148Z,396.50
2018-10-06T04:25:38.417Z,407.75
2018-10-06T04:27:40.728Z,381.93
2018-10-06T04:29:42.990Z,401.05
2018-10-06T04:31:45.311Z,394.52
2018-10-06T04:33:47.622Z,386.85
2018-10-06T04:35:50.426Z,395.73
2018-10-06T04:37:52.772Z,375.95
2018-10-06T04:39:55.116Z,387.88
2018-10-06T04:41:57.398Z,384.40
2018-10-06T04:43:59.735Z,375.93
2018-10-06T04:46:02.058Z,370.12
2018-10-06T04:48:04.408Z,347.80
2018-10-06T04:50:06.732Z,351.85
2018-10-06T04:52:09.039Z,349.20
2018-10-06T04:54:11.386Z,357.52
2018-10-06T04:56:13.644Z,349.30
2018-10-06T04:58:15.999Z,354.70
2018-10-06T05:00:18.254Z,349.60
2018-10-06T05:02:20.545Z,334.35
2018-10-06T05:04:22.883Z,355.83
2018-10-06T05:06:25.154Z,356.47
2018-10-06T05:08:27.458Z,342.70
2018-10-06T05:10:29.748Z,356.45
2018-10-06T05:12:32.088Z,351.05
2018-10-06T05:14:34.374Z,355.95
2018-10-06T05:16:36.650Z,351.67
2018-10-06T05:18:38.960Z,347.37
2018-10-06T05:20:41.236Z,350.25
2018-10-06T05:22:43.579Z,350.87
2018-10-06T05:24:45.912Z,339.55
2018-10-06T05:26:48.196Z,344.70
2018-10-06T05:28:50.468Z,336.00
2018-10-06T05:30:52.770Z,341.75
2018-10-06T05:32:55.044Z,338.00
2018-10-06T05:34:57.349Z,333.55
2018-10-06T05:36:59.690Z,337.32
2018-10-06T05:39:02.007Z,335.32
2018-10-06T05:41:04.315Z,328.67
2018-10-06T05:43:06.608Z,324.10
2018-10-06T05:45:08.852Z,322.88
2018-10-06T05:47:11.162Z,320.20
2018-10-06T05:49:13.442Z,324.75
2018-10-06T05:51:15.732Z,325.30
2018-10-06T05:53:18.026Z,316.25
2018-10-06T05:55:20.396Z,308.00
2018-10-06T05:57:22.678Z,313.10
2018-10-06T05:59:24.988Z,299.17
2018-10-06T06:01:27.289Z,301.27
2018-10-06T06:03:29.577Z,297.25
2018-10-06T06:05:31.937Z,300.10
2018-10-06T06:07:34.888Z,301.95
2018-10-06T06:09:37.944Z,295.73
2018-10-06T06:11:40.278Z,294.85
2018-10-06T06:13:42.585Z,291.10
2018-10-06T06:15:44.948Z,298.82
2018-10-06T06:17:47.238Z,330.52
2018-10-06T06:19:49.547Z,355.15
2018-10-06T06:21:51.868Z,367.23
2018-10-06T06:23:55.014Z,371.13
2018-10-06T06:25:57.307Z,372.67
2018-10-06T06:28:01.339Z,363.98
2018-10-06T06:30:03.713Z,363.00
2018-10-06T06:32:06.024Z,362.30
2018-10-06T06:34:08.519Z,351.75
2018-10-06T06:36:10.852Z,346.18
2018-10-06T06:38:13.219Z,347.35
2018-10-06T06:40:15.535Z,348.55
2018-10-06T06:42:17.861Z,346.62
2018-10-06T06:44:20.342Z,336.80
2018-10-06T06:46:23.762Z,337.40
2018-10-06T06:48:26.609Z,331.27
2018-10-06T06:50:28.903Z,324.02
2018-10-06T06:52:31.170Z,328.80
2018-10-06T06:54:33.578Z,347.25
2018-10-06T06:56:36.233Z,363.27
2018-10-06T06:58:38.555Z,374.85
2018-10-06T07:00:40.854Z,396.60
2018-10-06T07:02:43.147Z,398.45
2018-10-06T07:11:18.424Z,379.77
2018-10-06T07:13:20.697Z,374.55
2018-10-06T07:15:23.063Z,369.85
2018-10-06T07:17:25.422Z,355.67
2018-10-06T07:19:27.768Z,365.23
2018-10-06T07:21:30.093Z,351.62
2018-10-06T07:23:32.451Z,353.07
2018-10-06T07:25:34.783Z,354.18
2018-10-06T07:27:37.143Z,354.77
2018-10-06T07:29:39.489Z,340.85
2018-10-06T07:31:41.975Z,336.65
2018-10-06T07:33:44.344Z,331.32
2018-10-06T07:35:48.467Z,328.35
2018-10-06T07:37:50.771Z,318.05
2018-10-06T07:39:53.149Z,337.88
2018-10-06T07:41:55.458Z,313.90
2018-10-06T07:43:57.812Z,314.15
2018-10-06T07:46:00.742Z,326.95
2018-10-06T07:48:03.103Z,365.40
2018-10-06T07:50:05.429Z,430.77
2018-10-06T07:52:07.770Z,433.15
2018-10-06T07:54:10.021Z,399.92
2018-10-06T07:56:12.342Z,410.67
2018-10-06T07:58:14.670Z,393.25
2018-10-06T08:00:16.950Z,394.95
2018-10-06T08:02:19.307Z,389.65
2018-10-06T08:04:21.627Z,395.57
2018-10-06T08:06:23.949Z,460.95
2018-10-06T08:08:26.285Z,468.40
2018-10-06T08:10:28.641Z,455.90
2018-10-06T08:12:30.974Z,453.68
2018-10-06T08:14:33.347Z,472.82
2018-10-06T08:16:36.271Z,581.33
2018-10-06T08:18:38.587Z,336.32
2018-10-06T08:20:40.875Z,316.05
2018-10-06T08:22:43.234Z,493.65
2018-10-06T08:24:45.546Z,441.02
2018-10-06T08:26:47.829Z,488.27
2018-10-06T08:28:50.157Z,428.85
2018-10-06T08:30:52.409Z,444.20
2018-10-06T08:32:54.708Z,490.68
2018-10-06T08:34:57.071Z,568.17
2018-10-06T08:36:59.385Z,534.83
2018-10-06T08:39:01.709Z,532.05
2018-10-06T08:41:04.065Z,543.55
2018-10-06T08:43:06.346Z,551.08
2018-10-06T08:45:08.642Z,562.85
2018-10-06T08:47:12.148Z,551.63
2018-10-06T08:49:14.405Z,563.90
2018-10-06T08:51:16.721Z,567.33
2018-10-06T08:53:19.025Z,234.30
2018-10-06T08:55:21.316Z,288.12
2018-10-06T08:57:23.563Z,282.85
2018-10-06T08:59:25.846Z,151.72
2018-10-06T09:01:28.118Z,159.93
2018-10-06T09:03:30.887Z,177.50
2018-10-06T09:05:33.139Z,199.55
2018-10-06T09:07:38.321Z,98.78
2018-10-06T09:11:48.709Z,53.68
2018-10-06T09:13:51.686Z,23.70
2018-10-06T09:15:54.007Z,27.10
2018-10-06T09:17:56.408Z,24.10
2018-10-06T09:19:58.623Z,16.70
2018-10-06T09:22:00.964Z,18.70
2018-10-06T09:24:03.314Z,30.17
2018-10-06T09:26:05.703Z,20.35
2018-10-06T09:28:08.707Z,17.12
2018-10-06T09:30:11.090Z,33.30
2018-10-06T09:32:13.402Z,23.62
2018-10-06T09:34:15.720Z,46.95
2018-10-06T09:36:18.100Z,47.93
2018-10-06T09:38:20.398Z,59.55
2018-10-06T09:40:22.730Z,105.20
2018-10-06T09:42:25.097Z,331.13
2018-10-06T09:44:27.371Z,304.23
2018-10-06T09:46:29.646Z,108.12
2018-10-06T09:48:31.946Z,112.03
2018-10-06T09:50:34.258Z,48.65
2018-10-06T09:52:36.542Z,51.95
2018-10-06T09:54:38.828Z,38.30
2018-10-06T09:56:41.120Z,89.50
2018-10-06T09:58:45.348Z,133.05
2018-10-06T10:00:47.646Z,125.67
2018-10-06T10:02:49.930Z,68.80
2018-10-06T10:04:52.274Z,49.18
2018-10-06T10:06:54.593Z,63.87
2018-10-06T10:08:56.882Z,80.92
2018-10-06T10:10:59.197Z,222.30
2018-10-06T10:13:03.448Z,95.85
2018-10-06T10:15:05.716Z,182.47
2018-10-06T10:17:08.148Z,176.22
2018-10-06T10:19:10.294Z,97.45
2018-10-06T10:21:12.622Z,160.03
2018-10-06T10:23:14.939Z,124.85
2018-10-06T10:25:17.152Z,267.80
2018-10-06T10:27:19.519Z,226.40
2018-10-06T10:29:21.800Z,147.82
2018-10-06T10:31:24.134Z,174.90
2018-10-06T10:33:26.526Z,157.30
2018-10-06T10:35:28.802Z,155.95
2018-10-06T10:37:31.127Z,162.30
2018-10-06T10:39:33.505Z,160.95
2018-10-06T10:41:35.681Z,150.93
2018-10-06T10:43:37.913Z,143.95
2018-10-06T10:45:40.239Z,140.50
2018-10-06T10:47:42.732Z,143.55
2018-10-06T10:49:45.082Z,140.20
2018-10-06T10:51:47.392Z,140.82
2018-10-06T10:53:49.667Z,138.95
2018-10-06T10:55:51.931Z,136.15
2018-10-06T10:57:54.332Z,125.15
2018-10-06T10:59:56.796Z,126.75
2018-10-06T11:01:58.800Z,121.75
2018-10-06T11:04:01.145Z,125.38
2018-10-06T11:06:03.404Z,118.13
2018-10-06T11:08:05.689Z,116.88
2018-10-06T11:10:07.989Z,116.53
2018-10-06T11:12:10.308Z,117.95
2018-10-06T11:14:12.545Z,110.83
2018-10-06T11:16:14.881Z,112.90
2018-10-06T11:18:17.174Z,113.00
2018-10-06T11:20:19.479Z,107.32
2018-10-06T11:22:21.793Z,98.42
2018-10-06T11:24:24.067Z,96.63
2018-10-06T11:26:26.369Z,92.42
2018-10-06T11:28:28.649Z,93.80
2018-10-06T11:30:30.924Z,90.32
2018-10-06T11:32:33.211Z,93.17
2018-10-06T11:34:35.501Z,101.92
2018-10-06T11:36:37.793Z,84.65
2018-10-06T11:38:40.098Z,84.70
2018-10-06T11:40:42.343Z,87.17
2018-10-06T11:42:44.630Z,97.22
2018-10-06T11:44:46.913Z,88.40
2018-10-06T11:46:49.186Z,83.15
2018-10-06T11:48:51.477Z,89.00
2018-10-06T11:50:53.999Z,89.28
2018-10-06T11:52:56.275Z,81.78
2018-10-06T11:54:59.514Z,79.10
2018-10-06T11:57:01.811Z,79.07
2018-10-06T11:59:04.085Z,80.75
2018-10-06T12:01:06.370Z,73.02
2018-10-06T12:03:08.662Z,77.40
2018-10-06T12:05:10.993Z,74.55
2018-10-06T12:07:13.262Z,76.28
2018-10-06T12:09:15.542Z,64.10
2018-10-06T12:11:17.847Z,65.90
2018-10-06T12:13:20.133Z,69.30
2018-10-06T12:15:22.394Z,67.05
2018-10-06T12:17:24.687Z,64.82
2018-10-06T12:19:26.944Z,65.00
2018-10-06T12:21:29.273Z,62.93
2018-10-06T12:23:31.573Z,60.88
2018-10-06T12:25:33.873Z,62.00
2018-10-06T12:27:36.171Z,60.17
2018-10-06T12:29:38.456Z,62.25
2018-10-06T12:31:40.772Z,35.43
2018-10-06T12:33:43.179Z,35.68
2018-10-06T12:35:45.582Z,29.57
2018-10-06T12:37:47.832Z,27.67
2018-10-06T12:39:50.177Z,24.00
2018-10-06T12:41:52.522Z,31.00
2018-10-06T12:43:54.882Z,57.20
2018-10-06T12:45:57.202Z,90.45
2018-10-06T12:47:59.511Z,170.07
2018-10-06T12:50:01.802Z,126.00
2018-10-06T12:52:04.128Z,91.82
2018-10-06T12:54:06.433Z,80.20
2018-10-06T12:56:08.747Z,68.42
2018-10-06T12:58:11.037Z,69.53
2018-10-06T13:00:13.406Z,64.62
2018-10-06T13:02:15.673Z,82.67
2018-10-06T13:04:19.011Z,101.15
2018-10-06T13:06:21.357Z,191.53
2018-10-06T13:08:23.631Z,510.37
2018-10-06T13:10:25.908Z,321.62
2018-10-06T13:12:28.573Z,328.18
2018-10-06T13:14:30.904Z,262.45
2018-10-06T13:16:33.213Z,200.32
2018-10-06T13:18:35.530Z,160.65
2018-10-06T13:20:37.843Z,129.65
2018-10-06T13:22:40.135Z,124.72
2018-10-06T13:24:42.408Z,75.17
2018-10-06T13:26:44.764Z,50.30
2018-10-06T13:28:47.057Z,92.12
2018-10-06T13:30:49.431Z,83.65
2018-10-06T13:32:51.767Z,70.90
2018-10-06T13:34:54.038Z,65.97
2018-10-06T13:36:56.323Z,60.48
2018-10-06T13:38:58.622Z,61.88
2018-10-06T13:41:00.929Z,46.95
2018-10-06T13:43:03.209Z,47.10
2018-10-06T13:45:05.489Z,45.00
2018-10-06T13:47:07.795Z,140.00
2018-10-06T13:49:10.038Z,557.73
2018-10-06T13:51:12.388Z,206.23
2018-10-06T13:53:14.658Z,203.42
2018-10-06T13:55:16.948Z,161.30
2018-10-06T13:57:19.241Z,133.12
2018-10-06T13:59:21.534Z,129.23
2018-10-06T14:01:23.842Z,112.75
2018-10-06T14:03:26.168Z,94.70
2018-10-06T14:05:28.473Z,94.32
2018-10-06T14:07:30.796Z,82.90
2018-10-06T14:09:33.129Z,63.55
2018-10-06T14:11:35.394Z,106.00
2018-10-06T14:13:37.680Z,183.68
2018-10-06T14:15:40.051Z,139.65
2018-10-06T14:17:42.357Z,151.93
2018-10-06T14:19:44.711Z,108.83
2018-10-06T14:21:47.021Z,99.83
2018-10-06T14:23:49.315Z,81.25
2018-10-06T14:25:51.671Z,30.77
2018-10-06T14:27:54.001Z,31.55
2018-10-06T14:29:56.264Z,27.77
2018-10-06T14:31:58.568Z,16.07
2018-10-06T14:34:00.837Z,15.15
2018-10-06T14:36:03.110Z,21.25
2018-10-06T14:38:05.416Z,19.62
2018-10-06T14:40:07.692Z,10.82
2018-10-06T14:42:09.981Z,17.12
2018-10-06T14:44:12.341Z,17.52
2018-10-06T14:46:14.531Z,899.87
2018-10-06T14:48:16.788Z,99.97
2018-10-06T14:50:19.263Z,127.65
2018-10-06T14:52:21.434Z,316.70
2018-10-06T14:54:23.746Z,134.45
2018-10-06T14:56:26.031Z,155.57
2018-10-06T14:58:28.315Z,147.55
2018-10-06T15:00:30.627Z,137.47
2018-10-06T15:02:32.900Z,143.02
2018-10-06T15:04:35.389Z,132.03
2018-10-06T15:06:37.674Z,117.45
2018-10-06T15:08:39.988Z,98.92
2018-10-06T15:10:42.266Z,191.50
2018-10-06T15:12:44.570Z,91.00
2018-10-06T15:14:46.872Z,92.45
2018-10-06T15:16:49.153Z,102.12
2018-10-06T15:18:51.463Z,159.00
2018-10-06T15:20:53.757Z,126.00
2018-10-06T15:22:56.100Z,77.78
2018-10-06T15:24:58.358Z,105.50
2018-10-06T15:27:00.659Z,108.40
2018-10-06T15:29:02.992Z,97.10
2018-10-06T15:31:05.325Z,75.25
2018-10-06T15:33:07.577Z,71.75
2018-10-06T15:35:09.897Z,72.55
2018-10-06T15:37:12.218Z,195.55
2018-10-06T15:39:14.508Z,999.90
2018-10-06T15:41:16.796Z,111.85
2018-10-06T15:43:19.106Z,160.80
2018-10-06T15:45:21.364Z,174.93
2018-10-06T15:47:23.635Z,132.07
2018-10-06T15:49:25.946Z,132.45
2018-10-06T15:51:28.241Z,26.23
2018-10-06T15:53:30.542Z,31.02
2018-10-06T15:55:32.801Z,65.65
2018-10-06T15:57:35.090Z,52.30
2018-10-06T15:59:37.389Z,37.45
2018-10-06T16:01:39.681Z,62.73
2018-10-06T16:03:41.979Z,40.15
2018-10-06T16:05:44.335Z,61.40
2018-10-06T16:07:46.589Z,54.08
2018-10-06T16:09:48.879Z,43.45
2018-10-06T16:11:51.199Z,43.63
2018-10-06T16:13:53.524Z,14.55
2018-10-06T16:15:55.809Z,405.98
2018-10-06T16:17:58.124Z,48.75
2018-10-06T16:20:00.446Z,182.12
2018-10-06T16:22:02.767Z,215.62
2018-10-06T16:24:05.093Z,95.57
2018-10-06T16:26:07.407Z,107.43
2018-10-06T16:28:09.702Z,76.15
2018-10-06T16:30:11.984Z,85.75
2018-10-06T16:32:14.262Z,62.08
2018-10-06T16:34:16.576Z,85.47
2018-10-06T16:36:18.854Z,58.20
2018-10-06T16:38:21.155Z,56.30
2018-10-06T16:40:23.439Z,51.98
2018-10-06T16:42:25.694Z,142.00
2018-10-06T16:44:27.985Z,67.40
2018-10-06T16:46:30.260Z,140.07
2018-10-06T16:48:32.540Z,78.07
2018-10-06T16:50:34.849Z,93.27
2018-10-06T16:52:37.601Z,130.82
2018-10-06T16:54:39.877Z,151.40
2018-10-06T16:56:42.188Z,161.25
2018-10-06T16:58:44.452Z,140.00
2018-10-06T17:00:46.733Z,119.35
2018-10-06T17:02:49.005Z,127.07
2018-10-06T17:04:51.319Z,116.40
2018-10-06T17:06:53.609Z,92.67
2018-10-06T17:08:55.892Z,80.75
2018-10-06T17:10:58.195Z,48.63
2018-10-06T17:13:00.555Z,59.80
2018-10-06T17:15:02.814Z,44.95
2018-10-06T17:17:05.125Z,213.72
2018-10-06T17:19:07.436Z,208.85
2018-10-06T17:21:09.711Z,231.05
2018-10-06T17:23:12.032Z,241.05
2018-10-06T17:25:14.365Z,317.15
2018-10-06T17:27:16.666Z,440.88
2018-10-06T17:29:18.959Z,356.47
2018-10-06T17:31:21.307Z,442.63
2018-10-06T17:33:23.571Z,412.32
2018-10-06T17:35:25.883Z,392.87
2018-10-06T17:37:28.206Z,387.12
2018-10-06T17:39:30.440Z,373.87
2018-10-06T17:41:32.774Z,383.27
2018-10-06T17:43:35.096Z,431.07
2018-10-06T17:45:37.372Z,473.78
2018-10-06T17:47:39.691Z,468.13
2018-10-06T17:49:42.005Z,457.40
2018-10-06T17:51:44.270Z,408.77
2018-10-06T17:53:46.636Z,412.75
2018-10-06T17:55:48.965Z,412.77
2018-10-06T17:57:51.286Z,401.55
2018-10-06T17:59:53.558Z,407.75
2018-10-06T18:01:55.808Z,399.05
2018-10-06T18:03:58.115Z,437.12
2018-10-06T18:06:00.444Z,481.05
2018-10-06T18:08:02.791Z,488.72
2018-10-06T18:10:05.076Z,533.35
2018-10-06T18:12:07.371Z,498.35
2018-10-06T18:14:09.646Z,493.67
2018-10-06T18:16:12.104Z,461.17
2018-10-06T18:18:14.443Z,545.98
2018-10-06T18:20:16.801Z,475.60
2018-10-06T18:22:19.027Z,504.30
2018-10-06T18:24:21.426Z,556.60
2018-10-06T18:26:23.676Z,527.05
2018-10-06T18:28:25.940Z,552.90
2018-10-06T18:30:28.248Z,570.77
2018-10-06T18:32:30.526Z,571.08
2018-10-06T18:34:32.848Z,569.75
2018-10-06T18:36:35.343Z,562.70
2018-10-06T18:38:37.493Z,585.75
2018-10-06T18:40:39.799Z,551.08
2018-10-06T18:42:42.076Z,999.90
2018-10-06T18:44:44.721Z,635.08
2018-10-06T18:46:47.056Z,700.60
2018-10-06T18:48:49.473Z,664.92
2018-10-06T18:50:51.793Z,692.75
2018-10-06T19:38:49.166Z,85.15
2018-10-06T19:40:56.814Z,53.68
2018-10-06T19:43:04.373Z,52.70
2018-10-06T19:45:06.385Z,73.50
2018-10-06T19:47:08.436Z,56.45
2018-10-06T19:49:10.444Z,62.78
2018-10-06T19:51:12.499Z,115.00
2018-10-06T19:53:14.583Z,76.05
2018-10-06T19:55:16.582Z,55.78
2018-10-06T19:57:18.774Z,42.80
2018-10-06T19:59:20.759Z,56.02
2018-10-06T20:01:22.771Z,24.60
2018-10-06T20:03:24.777Z,27.15
2018-10-06T20:05:26.869Z,143.93
2018-10-06T20:07:28.879Z,147.50
2018-10-06T20:09:30.882Z,96.05
2018-10-06T20:11:32.910Z,56.08
2018-10-06T20:13:34.942Z,300.77
2018-10-06T20:15:37.104Z,744.35
2018-10-06T20:17:39.133Z,118.37
2018-10-06T20:19:41.176Z,85.10
2018-10-06T20:21:43.562Z,58.02
2018-10-06T20:23:45.588Z,45.85
2018-10-06T20:25:47.578Z,30.60
2018-10-06T20:27:49.704Z,38.67
2018-10-06T20:29:51.730Z,24.37
2018-10-06T20:31:53.756Z,416.57
2018-10-06T20:33:55.824Z,57.00
2018-10-06T20:35:57.798Z,84.37
2018-10-06T20:37:59.784Z,76.33
2018-10-06T20:40:01.874Z,93.12
2018-10-06T20:42:03.901Z,482.25
2018-10-06T20:44:05.901Z,178.32
2018-10-06T20:46:07.976Z,170.40
2018-10-06T20:48:09.954Z,173.45
2018-10-06T20:50:12.028Z,168.32
2018-10-06T20:52:14.042Z,151.15
2018-10-06T20:54:16.057Z,163.92
2018-10-06T20:56:18.081Z,160.70
2018-10-06T20:58:20.096Z,167.05
2018-10-06T21:00:22.097Z,159.22
2018-10-06T21:02:24.109Z,161.88
2018-10-06T21:04:26.192Z,158.60
2018-10-06T21:06:28.272Z,165.52
2018-10-06T21:08:30.305Z,150.25
2018-10-06T21:10:32.327Z,156.35
2018-10-06T21:12:34.320Z,156.85
2018-10-06T21:14:36.334Z,147.82
2018-10-06T21:16:38.335Z,151.50
2018-10-06T21:18:40.369Z,139.10
2018-10-06T21:20:42.445Z,136.75
2018-10-06T21:22:44.485Z,150.85
2018-10-06T21:24:46.547Z,139.68
2018-10-06T21:26:48.550Z,146.15
2018-10-06T21:28:50.653Z,146.72
2018-10-06T21:30:52.562Z,139.30
2018-10-06T21:32:54.582Z,142.25
2018-10-06T21:34:56.565Z,142.40
2018-10-06T21:36:58.585Z,140.68
2018-10-06T21:39:00.609Z,133.72
2018-10-06T21:41:02.573Z,125.30
2018-10-06T21:43:04.601Z,128.10
2018-10-06T21:45:06.587Z,133.47
2018-10-06T21:47:08.615Z,136.28
2018-10-06T21:49:10.609Z,136.45
2018-10-06T21:51:12.629Z,136.80
2018-10-06T21:53:14.648Z,136.68
2018-10-06T21:55:16.659Z,124.82
2018-10-06T21:57:18.703Z,134.37
2018-10-06T21:59:20.711Z,130.50
2018-10-06T22:01:22.762Z,136.97
2018-10-06T22:03:24.823Z,120.62
2018-10-06T22:05:26.772Z,131.07
2018-10-06T22:07:28.778Z,125.65
2018-10-06T22:09:30.784Z,127.87
2018-10-06T22:11:32.786Z,127.65
2018-10-06T22:13:34.825Z,124.25
2018-10-06T22:15:36.811Z,129.38
2018-10-06T22:17:38.841Z,118.53
2018-10-06T22:19:40.870Z,125.72
2018-10-06T22:21:42.877Z,117.62
2018-10-06T22:23:44.860Z,114.90
2018-10-06T22:25:46.849Z,119.40
2018-10-06T22:27:48.877Z,120.67
2018-10-06T22:29:50.901Z,119.45
2018-10-06T22:31:52.895Z,120.97
2018-10-06T22:33:54.879Z,116.57
2018-10-06T22:35:56.918Z,121.37
2018-10-06T22:37:58.910Z,113.40
2018-10-06T22:40:00.879Z,115.12
2018-10-06T22:42:02.920Z,113.30
2018-10-06T22:44:04.904Z,120.28
2018-10-06T22:46:06.899Z,116.22
2018-10-06T22:48:08.930Z,112.28
2018-10-06T22:50:10.963Z,112.10
2018-10-06T22:52:12.964Z,116.22
2018-10-06T22:54:15.005Z,112.22
2018-10-06T22:56:16.981Z,112.83
2018-10-06T22:58:19.052Z,110.48
2018-10-06T23:00:21.057Z,111.97
2018-10-06T23:02:23.083Z,110.70
2018-10-06T23:04:25.121Z,107.65
2018-10-06T23:06:27.141Z,102.00
2018-10-06T23:08:29.159Z,108.35
2018-10-06T23:10:31.152Z,109.12
2018-10-06T23:12:33.180Z,110.88
2018-10-06T23:14:35.172Z,108.90
2018-10-06T23:16:37.190Z,105.80
2018-10-06T23:18:39.219Z,102.02
2018-10-06T23:20:41.230Z,110.90
2018-10-06T23:22:43.207Z,106.58
2018-10-06T23:24:45.238Z,105.10
2018-10-06T23:26:47.242Z,105.07
2018-10-06T23:28:49.313Z,104.10
2018-10-06T23:30:51.308Z,103.07
2018-10-06T23:32:53.348Z,96.82
2018-10-06T23:34:55.343Z,100.55
2018-10-06T23:36:57.329Z,98.33
2018-10-06T23:38:59.365Z,105.70
2018-10-06T23:41:01.369Z,100.20
2018-10-06T23:43:03.362Z,99.20
2018-10-06T23:45:05.393Z,93.10
2018-10-06T23:47:07.411Z,94.97
2018-10-06T23:49:09.438Z,99.07
2018-10-06T23:51:11.413Z,95.20
2018-10-06T23:53:13.398Z,96.50
2018-10-06T23:55:15.409Z,96.37
2018-10-06T23:57:17.436Z,89.25
2018-10-06T23:59:19.458Z,94.50
